TimeAST,TemperatureF,Dew PointF,Humidity,Sea Level PressureIn,VisibilityMPH,Wind Direction,Wind SpeedMPH,Gust SpeedMPH,PrecipitationIn,Events,Conditions,WindDirDegrees,DateUTC
12:00 AM,71.6,68.0,88,30.09,6.2,NNE,5.8,-,N/A,,Partly Cloudy,30,2013-01-08 04:00:00
1:00 AM,71.6,68.0,88,30.09,6.2,NNE,6.9,-,N/A,,Partly Cloudy,30,2013-01-08 05:00:00
2:00 AM,69.8,68.0,94,30.06,6.2,NNE,4.6,-,N/A,,Partly Cloudy,30,2013-01-08 06:00:00
3:00 AM,71.6,68.0,88,30.06,6.2,NE,8.1,-,N/A,,Partly Cloudy,40,2013-01-08 07:00:00
4:00 AM,71.6,68.0,88,30.06,6.2,NNE,5.8,-,N/A,,Partly Cloudy,30,2013-01-08 08:00:00
5:00 AM,69.8,68.0,94,30.04,6.2,Calm,Calm,-,N/A,,Partly Cloudy,0,2013-01-08 09:00:00
6:00 AM,69.8,68.0,94,30.04,6.2,NNE,5.8,-,N/A,,Partly Cloudy,30,2013-01-08 10:00:00
7:00 AM,69.8,68.0,94,-9999,6.2,NNE,4.6,-,N/A,,Partly Cloudy,30,2013-01-08 11:00:00
8:00 AM,68.0,66.2,94,30.09,6.2,NE,5.8,-,N/A,,Partly Cloudy,40,2013-01-08 12:00:00
9:00 AM,73.4,69.8,88,30.12,6.2,NE,6.9,-,N/A,,Partly Cloudy,50,2013-01-08 13:00:00
10:00 AM,78.8,71.6,78,30.12,6.2,ENE,10.4,-,N/A,,Partly Cloudy,70,2013-01-08 14:00:00
11:00 AM,82.4,69.8,66,30.12,6.2,East,15.0,-,N/A,,Partly Cloudy,100,2013-01-08 15:00:00
12:00 PM,86.0,69.8,58,30.09,6.2,ESE,12.7,-,N/A,,Scattered Clouds,110,2013-01-08 16:00:00
1:00 PM,86.0,69.8,58,30.06,6.2,ESE,16.1,28.8,N/A,,Scattered Clouds,120,2013-01-08 17:00:00
2:00 PM,89,72,47,30.05,10,ESE,15.7,,,,Partly Cloudy,120,2013-01-08 18:00:00
2:00 PM,89.6,69.8,52,30.04,6.2,ESE,15.0,-,N/A,,Scattered Clouds,120,2013-01-08 18:00:00
3:00 PM,86.0,66.2,51,30.04,6.2,ESE,16.1,-,N/A,,Scattered Clouds,110,2013-01-08 19:00:00
4:00 PM,86.0,68.0,55,30.01,6.2,ESE,16.1,-,N/A,,Scattered Clouds,120,2013-01-08 20:00:00
5:00 PM,84.2,66.2,55,30.04,6.2,East,11.5,-,N/A,,Mostly Cloudy,80,2013-01-08 21:00:00
6:00 PM,80.6,69.8,70,30.06,6.2,ENE,11.5,-,N/A,,Mostly Cloudy,60,2013-01-08 22:00:00
7:00 PM,78.8,71.6,78,30.06,6.2,ENE,12.7,-,N/A,,Mostly Cloudy,70,2013-01-08 23:00:00
8:00 PM,80,73,73,30.10,10,ENE,6.7,,,,Partly Cloudy,60,2013-01-09 00:00:00
8:00 PM,78.8,73.4,83,30.09,6.2,ENE,6.9,-,N/A,,Scattered Clouds,60,2013-01-09 00:00:00
9:00 PM,78.8,71.6,78,30.09,6.2,NE,9.2,-,N/A,,Scattered Clouds,50,2013-01-09 01:00:00
10:00 PM,75.2,69.8,83,30.12,6.2,NE,5.8,-,N/A,,Scattered Clouds,40,2013-01-09 02:00:00